Time;durP1;ratioP1;P1;durP2;ratioP2;P2;SDS_P1;SDS_P2;PMS_P1;PMS_P2;Temp;Humidity;BMP_temperature;BMP_pressure;BME280_temperature;BME280_humidity;BME280_pressure;Samples;Min_cycle;Max_cycle;Signal;HPM_P1;HPM_P2
2023/09/03 00:00:31;;;;;;;9.40;6.17;;;;;;;14.30;100.00;101541.00;5052244;28;20048;-68
2023/09/03 00:02:57;;;;;;;6.20;5.40;;;;;;;14.35;100.00;101546.69;5052036;28;20122;-69
2023/09/03 00:05:22;;;;;;;8.97;4.97;;;;;;;14.18;100.00;101518.22;5051978;28;20399;-68
2023/09/03 00:07:50;;;;;;;10.83;6.30;;;;;;;14.36;100.00;101547.50;5051929;28;20025;-68
2023/09/03 00:10:15;;;;;;;9.03;5.80;;;;;;;14.25;100.00;101535.31;5051824;28;20029;-68
2023/09/03 00:12:41;;;;;;;9.53;5.87;;;;;;;14.09;100.00;101505.81;5052125;28;20454;-67
2023/09/03 00:15:07;;;;;;;7.90;5.37;;;;;;;14.26;100.00;101536.97;5051802;28;20039;-67
2023/09/03 00:17:32;;;;;;;10.17;6.07;;;;;;;14.31;100.00;101550.69;5050713;28;20086;-69
2023/09/03 00:19:58;;;;;;;9.53;6.43;;;;;;;14.31;100.00;101549.88;5051872;28;20029;-67
2023/09/03 00:22:23;;;;;;;13.03;5.93;;;;;;;14.15;100.00;101530.09;5051928;28;20035;-67
2023/09/03 00:24:49;;;;;;;9.67;6.17;;;;;;;14.32;100.00;101554.22;5052128;28;20491;-66
2023/09/03 00:27:15;;;;;;;9.77;5.87;;;;;;;14.28;100.00;101556.41;5052115;28;20029;-69
2023/09/03 00:29:42;;;;;;;9.40;5.53;;;;;;;14.10;100.00;101539.63;5052148;28;20464;-70
2023/09/03 00:32:07;;;;;;;8.67;5.90;;;;;;;14.20;100.00;101548.38;5050866;28;20033;-67
2023/09/03 00:34:33;;;;;;;9.27;5.77;;;;;;;14.13;100.00;101550.00;5051779;28;20029;-69
2023/09/03 00:36:59;;;;;;;7.50;5.33;;;;;;;14.23;100.00;101569.47;5052246;28;20025;-67
2023/09/03 00:39:24;;;;;;;6.83;5.70;;;;;;;14.11;100.00;101554.72;5051838;28;20363;-67
2023/09/03 00:41:50;;;;;;;9.07;6.40;;;;;;;14.14;100.00;101562.41;5051810;28;20021;-67
2023/09/03 00:44:15;;;;;;;6.87;5.40;;;;;;;14.08;100.00;101555.03;5051952;28;20127;-69
2023/09/03 00:46:44;;;;;;;9.97;5.70;;;;;;;14.12;100.00;101564.41;5050429;28;20087;-68
2023/09/03 00:49:12;;;;;;;8.50;6.37;;;;;;;14.06;100.00;101563.25;5051554;28;20032;-68
2023/09/03 00:51:38;;;;;;;11.33;6.17;;;;;;;13.90;100.00;101539.97;5051540;28;20063;-69
2023/09/03 00:54:04;;;;;;;14.30;6.90;;;;;;;13.86;100.00;101535.94;5051859;28;20025;-69
2023/09/03 00:56:30;;;;;;;10.20;6.47;;;;;;;13.95;100.00;101556.38;5051653;28;20017;-67
2023/09/03 00:58:56;;;;;;;9.93;5.57;;;;;;;13.91;100.00;101552.34;5051695;28;20036;-66
2023/09/03 01:01:22;;;;;;;11.57;6.20;;;;;;;13.92;100.00;101559.38;5051668;28;20024;-67
2023/09/03 01:03:48;;;;;;;13.93;6.83;;;;;;;14.06;100.00;101578.47;5050288;28;20051;-69
2023/09/03 01:06:14;;;;;;;10.70;6.93;;;;;;;13.80;100.00;101533.06;5050241;28;20044;-68
2023/09/03 01:08:40;;;;;;;11.10;6.73;;;;;;;13.98;100.00;101565.09;5055448;28;20029;-67
2023/09/03 01:11:27;;;;;;;14.93;7.17;;;;;;;14.03;100.00;101586.84;5055407;28;20403;-69
2023/09/03 01:14:11;;;;;;;6.90;5.70;;;;;;;14.04;100.00;101583.16;5055348;28;20029;-65
2023/09/03 01:16:47;;;;;;;11.33;6.70;;;;;;;13.67;100.00;101527.38;5055332;28;20021;-69
2023/09/03 01:19:33;;;;;;;9.67;6.67;;;;;;;13.94;100.00;101576.13;5055497;28;20132;-68
2023/09/03 01:22:10;;;;;;;14.47;7.60;;;;;;;13.88;100.00;101575.97;5053999;28;20032;-65
2023/09/03 01:24:47;;;;;;;11.50;9.63;;;;;;;13.86;100.00;101583.28;5055150;28;20090;-67
2023/09/03 01:27:23;;;;;;;11.53;8.30;;;;;;;13.77;100.00;101576.25;5055015;28;20480;-67
2023/09/03 01:29:52;;;;;;;17.80;8.40;;;;;;;13.73;100.00;101564.19;5055688;28;20049;-67
2023/09/03 01:32:18;;;;;;;12.30;7.53;;;;;;;13.84;100.00;101596.84;5060290;28;20029;-69
2023/09/03 01:34:46;;;;;;;10.97;7.67;;;;;;;13.81;100.00;101597.16;5060816;28;20086;-67
2023/09/03 01:37:12;;;;;;;11.30;8.30;;;;;;;13.47;100.00;101542.88;5059064;28;20029;-66
2023/09/03 01:39:38;;;;;;;12.17;9.00;;;;;;;13.75;100.00;101591.63;5060128;28;20021;-66
2023/09/03 01:42:04;;;;;;;11.47;8.40;;;;;;;13.73;100.00;101593.63;5061799;28;20084;-67
2023/09/03 01:44:30;;;;;;;11.13;8.10;;;;;;;13.73;100.00;101604.34;5058683;28;20104;-67
2023/09/03 01:47:04;;;;;;;17.13;11.10;;;;;;;13.37;100.00;101542.19;5059820;28;20017;-67
2023/09/03 01:49:32;;;;;;;18.50;10.43;;;;;;;13.73;100.00;101602.50;5059894;28;20028;-67
2023/09/03 01:52:17;;;;;;;12.57;9.25;;;;;;;13.75;100.00;101600.50;5060188;28;20043;-67
2023/09/03 01:54:48;;;;;;;12.63;9.47;;;;;;;13.70;100.00;101594.81;5056296;28;20051;-67
2023/09/03 01:57:20;;;;;;;12.93;10.30;;;;;;;13.74;100.00;101590.78;5053726;28;20423;-67
2023/09/03 01:59:49;;;;;;;13.47;10.07;;;;;;;13.65;100.00;101583.75;5054480;28;20112;-67
2023/09/03 02:02:16;;;;;;;14.97;10.80;;;;;;;13.74;100.00;101601.50;5054411;28;20094;-66
2023/09/03 02:04:42;;;;;;;19.93;11.13;;;;;;;13.64;100.00;101590.09;5054325;28;20056;-67
2023/09/03 02:07:08;;;;;;;15.63;10.87;;;;;;;13.64;100.00;101585.59;5054354;28;20029;-66
2023/09/03 02:09:33;;;;;;;15.30;10.30;;;;;;;13.68;100.00;101602.16;5054223;28;20427;-68
2023/09/03 02:11:59;;;;;;;14.07;11.23;;;;;;;13.67;100.00;101589.78;5054138;28;20127;-69
2023/09/03 02:14:26;;;;;;;18.43;11.00;;;;;;;13.61;100.00;101591.28;5054139;28;20033;-67
2023/09/03 02:16:52;;;;;;;16.53;11.90;;;;;;;13.59;100.00;101603.16;5054044;28;20100;-67
2023/09/03 02:19:17;;;;;;;16.20;11.30;;;;;;;13.46;100.00;101581.34;5053690;28;20136;-68
2023/09/03 02:21:43;;;;;;;14.73;11.07;;;;;;;13.53;100.00;101588.53;5053219;28;20035;-67
2023/09/03 02:24:08;;;;;;;20.50;11.47;;;;;;;13.55;100.00;101601.75;5053913;28;20025;-67
2023/09/03 02:26:44;;;;;;;14.73;10.40;;;;;;;13.47;100.00;101583.00;5053737;28;20032;-66
2023/09/03 02:29:11;;;;;;;14.20;10.10;;;;;;;13.40;100.00;101571.28;5053719;28;20056;-68
2023/09/03 02:31:37;;;;;;;14.57;11.43;;;;;;;13.48;100.00;101584.69;5054067;28;20041;-69
2023/09/03 02:34:04;;;;;;;15.17;10.10;;;;;;;13.42;100.00;101569.28;5053792;28;20037;-67
2023/09/03 02:36:31;;;;;;;18.37;9.83;;;;;;;13.39;100.00;101569.59;5054073;28;20025;-67
2023/09/03 02:39:03;;;;;;;12.37;9.93;;;;;;;13.39;100.00;101570.44;5053663;28;20127;-68
2023/09/03 02:41:32;;;;;;;15.63;9.83;;;;;;;13.46;100.00;101582.16;5054243;28;20040;-68
2023/09/03 02:43:58;;;;;;;12.55;9.90;;;;;;;13.39;100.00;101580.31;5054048;28;20479;-68
2023/09/03 02:46:25;;;;;;;14.70;10.20;;;;;;;13.44;100.00;101588.69;5053729;28;20040;-67
2023/09/03 02:48:51;;;;;;;10.63;9.50;;;;;;;13.40;100.00;101595.34;5053601;28;20025;-68
2023/09/03 02:51:16;;;;;;;15.67;10.70;;;;;;;13.25;100.00;101577.22;5053472;28;20021;-66
2023/09/03 02:53:43;;;;;;;16.47;9.97;;;;;;;13.03;100.00;101548.34;5053344;28;20024;-69
2023/09/03 02:56:10;;;;;;;16.60;9.80;;;;;;;13.33;100.00;101598.69;5053322;28;20040;-67
2023/09/03 02:58:35;;;;;;;12.67;9.67;;;;;;;13.32;100.00;101593.50;5051845;28;20504;-66
2023/09/03 03:01:06;;;;;;;15.93;10.53;;;;;;;13.10;100.00;101565.44;5053442;28;20017;-67
2023/09/03 03:03:32;;;;;;;13.40;9.40;;;;;;;13.15;100.00;101573.81;5052447;28;20033;-68
2023/09/03 03:05:58;;;;;;;16.30;9.80;;;;;;;13.20;100.00;101587.56;5053106;28;20039;-66
2023/09/03 03:08:24;;;;;;;13.53;9.67;;;;;;;13.08;100.00;101571.94;5051727;28;20024;-65
2023/09/03 03:10:50;;;;;;;12.87;8.50;;;;;;;13.21;100.00;101593.75;5052886;28;20035;-68
2023/09/03 03:13:16;;;;;;;11.70;7.40;;;;;;;13.14;100.00;101571.28;5052871;28;20025;-67
2023/09/03 03:15:41;;;;;;;15.97;7.60;;;;;;;13.23;100.00;101592.59;5051380;28;20021;-69
2023/09/03 03:18:06;;;;;;;12.97;8.53;;;;;;;13.22;100.00;101585.56;5035167;28;20460;-69
2023/09/03 03:20:32;;;;;;;8.93;7.30;;;;;;;12.93;100.00;101539.59;5052941;28;20044;-67
2023/09/03 03:22:57;;;;;;;10.33;7.60;;;;;;;13.29;100.00;101596.47;5052784;28;20021;-66
2023/09/03 03:25:23;;;;;;;9.47;6.73;;;;;;;13.18;100.00;101575.34;5052729;28;20476;-69
2023/09/03 03:27:48;;;;;;;8.10;5.97;;;;;;;12.57;100.00;101472.91;5051514;28;20037;-67
2023/09/03 03:30:14;;;;;;;8.60;6.40;;;;;;;13.26;100.00;101584.25;5034250;28;20048;-67
2023/09/03 03:32:40;;;;;;;9.07;6.07;;;;;;;13.28;100.00;101576.06;5052618;28;20064;-68
2023/09/03 03:35:06;;;;;;;6.63;5.63;;;;;;;13.35;100.00;101568.25;5052642;28;20495;-68
2023/09/03 03:37:31;;;;;;;7.57;5.60;;;;;;;13.50;100.00;101588.03;5052726;28;20048;-66
2023/09/03 03:39:57;;;;;;;9.50;5.67;;;;;;;13.52;100.00;101586.03;5052385;28;20177;-68
2023/09/03 03:42:22;;;;;;;9.77;7.80;;;;;;;13.45;100.00;101563.59;5052424;28;20116;-67
2023/09/03 03:44:48;;;;;;;10.13;6.83;;;;;;;13.59;100.00;101587.91;5052321;28;20029;-69
2023/09/03 03:47:13;;;;;;;7.67;5.37;;;;;;;13.55;100.00;101570.47;5051376;28;20021;-69
2023/09/03 03:49:39;;;;;;;9.03;6.13;;;;;;;13.58;100.00;101570.16;5052186;28;20425;-68
2023/09/03 03:52:04;;;;;;;9.77;5.33;;;;;;;13.74;100.00;101584.59;5052395;28;20029;-68
2023/09/03 03:54:30;;;;;;;7.10;5.27;;;;;;;13.79;100.00;101592.97;5052054;28;20048;-68
2023/09/03 03:56:56;;;;;;;10.23;4.73;;;;;;;13.80;100.00;101584.78;5052150;28;20108;-68
2023/09/03 03:59:22;;;;;;;6.77;4.60;;;;;;;13.81;100.00;101581.09;5050976;28;20112;-67
2023/09/03 04:01:47;;;;;;;7.77;4.67;;;;;;;13.85;100.00;101589.66;5050963;28;20029;-68
2023/09/03 04:04:13;;;;;;;8.60;4.87;;;;;;;13.76;100.00;101571.88;5052019;28;20550;-68
2023/09/03 04:06:38;;;;;;;6.33;4.70;;;;;;;13.83;100.00;101579.09;5052425;28;20063;-67
2023/09/03 04:09:04;;;;;;;6.67;4.50;;;;;;;13.90;100.00;101590.84;5052315;28;20025;-66
2023/09/03 04:11:29;;;;;;;10.60;5.87;;;;;;;13.83;100.00;101573.75;5051926;28;20048;-67
2023/09/03 04:13:55;;;;;;;8.20;5.20;;;;;;;13.97;100.00;101590.19;5051742;28;20067;-66
2023/09/03 04:16:22;;;;;;;8.47;5.67;;;;;;;13.73;100.00;101548.13;5051985;28;20025;-67
2023/09/03 04:18:49;;;;;;;10.27;5.00;;;;;;;13.87;100.00;101563.53;5052069;28;20500;-66
2023/09/03 04:21:14;;;;;;;6.87;4.80;;;;;;;13.97;100.00;101563.41;5051896;28;20029;-66
2023/09/03 04:23:40;;;;;;;7.17;5.10;;;;;;;14.17;100.00;101587.03;5051852;28;20117;-66
2023/09/03 04:26:06;;;;;;;9.47;6.13;;;;;;;14.24;100.00;101584.53;5051785;28;20068;-68
2023/09/03 04:28:31;;;;;;;7.43;5.03;;;;;;;14.18;100.00;101566.44;5051806;28;20043;-68
2023/09/03 04:31:10;;;;;;;5.77;4.77;;;;;;;14.31;100.00;101577.50;5051786;28;20048;-66
2023/09/03 04:33:36;;;;;;;;;;;;;;;14.57;100.00;101601.47;5050998;28;20037;-65
2023/09/03 04:36:02;;;;;;;13.43;5.20;;;;;;;14.55;100.00;101607.00;5051315;28;19999;-72
2023/09/03 04:38:29;;;;;;;10.20;4.80;;;;;;;14.42;100.00;101577.16;5050513;28;20056;-70
2023/09/03 04:40:56;;;;;;;9.00;4.57;;;;;;;14.33;100.00;101578.16;5051531;28;20029;-67
2023/09/03 04:43:22;;;;;;;5.10;4.57;;;;;;;14.36;100.00;101579.66;5054368;28;20021;-68
2023/09/03 04:45:49;;;;;;;7.13;5.10;;;;;;;14.49;100.00;101591.59;5054316;28;20144;-66
2023/09/03 04:48:16;;;;;;;7.63;3.93;;;;;;;14.55;100.00;101595.47;5055292;28;20063;-66
2023/09/03 04:50:41;;;;;;;5.70;4.70;;;;;;;14.45;100.00;101574.16;5055730;28;20465;-68
2023/09/03 04:53:07;;;;;;;11.93;5.17;;;;;;;14.47;100.00;101577.53;5054984;28;20031;-65
2023/09/03 04:55:34;;;;;;;6.43;5.37;;;;;;;14.48;100.00;101583.75;5055810;28;20051;-67
2023/09/03 04:57:59;;;;;;;10.90;5.87;;;;;;;14.45;100.00;101584.88;5055632;28;20060;-66
2023/09/03 05:00:25;;;;;;;8.03;4.83;;;;;;;14.35;100.00;101565.44;5055565;28;20032;-69
2023/09/03 05:02:51;;;;;;;7.20;4.83;;;;;;;14.50;100.00;101587.94;5054247;28;20059;-66
2023/09/03 05:05:18;;;;;;;9.97;5.30;;;;;;;14.60;100.00;101576.19;5055551;28;20029;-65
2023/09/03 05:07:43;;;;;;;12.23;6.00;;;;;;;14.43;100.00;101549.38;5055279;28;20033;-67
2023/09/03 05:10:09;;;;;;;10.97;5.27;;;;;;;14.73;100.00;101579.16;5053972;28;20029;-68
2023/09/03 05:12:34;;;;;;;7.07;5.97;;;;;;;14.75;100.00;101585.22;5055160;28;20058;-67
2023/09/03 05:15:00;;;;;;;5.73;4.90;;;;;;;14.76;100.00;101586.91;5055164;28;20155;-67
2023/09/03 05:17:25;;;;;;;7.23;5.77;;;;;;;14.90;100.00;101591.56;5055420;28;20456;-68
2023/09/03 05:19:51;;;;;;;8.40;5.43;;;;;;;15.05;100.00;101587.19;5053767;28;20051;-67
2023/09/03 05:22:16;;;;;;;9.03;5.37;;;;;;;14.98;100.00;101562.03;5054900;28;20400;-67
2023/09/03 05:24:42;;;;;;;7.40;4.80;;;;;;;15.19;100.00;101597.19;5054910;28;20413;-67
2023/09/03 05:27:08;;;;;;;7.87;5.50;;;;;;;15.15;100.00;101595.84;5055042;28;20032;-66
2023/09/03 05:29:35;;;;;;;10.17;6.00;;;;;;;15.11;100.00;101591.84;5054842;28;20122;-67
2023/09/03 05:32:00;;;;;;;9.70;6.00;;;;;;;15.16;100.00;101600.22;5054865;28;20424;-68
2023/09/03 05:34:26;;;;;;;8.60;5.57;;;;;;;15.17;100.00;101607.25;5054858;28;20595;-69
2023/09/03 05:36:51;;;;;;;6.10;5.13;;;;;;;14.98;100.00;101564.72;5053622;28;20033;-66
2023/09/03 05:39:17;;;;;;;8.27;5.70;;;;;;;15.29;100.00;101599.66;5054595;28;20510;-66
2023/09/03 05:41:42;;;;;;;10.20;6.50;;;;;;;15.24;100.00;101577.03;5054774;28;20116;-70
2023/09/03 05:44:09;;;;;;;11.70;6.30;;;;;;;15.27;100.00;101584.75;5054773;28;20108;-69
2023/09/03 05:46:35;;;;;;;7.10;6.00;;;;;;;15.31;100.00;101586.06;5053472;28;20120;-67
2023/09/03 05:49:01;;;;;;;14.90;6.73;;;;;;;15.33;100.00;101584.06;5053307;28;20033;-68
2023/09/03 05:51:27;;;;;;;9.20;5.97;;;;;;;15.44;100.00;101602.47;5053084;28;20032;-67
2023/09/03 05:53:53;;;;;;;10.50;6.87;;;;;;;15.50;100.00;101601.75;5053671;28;20083;-66
2023/09/03 05:56:19;;;;;;;9.53;5.97;;;;;;;15.47;100.00;101586.84;5054666;28;20029;-68
2023/09/03 05:58:45;;;;;;;15.80;6.77;;;;;;;15.58;100.00;101588.31;5054586;28;20036;-68
2023/09/03 06:01:11;;;;;;;10.17;6.80;;;;;;;15.60;100.00;101567.50;5053181;28;20021;-69
2023/09/03 06:03:38;;;;;;;12.03;5.83;;;;;;;15.93;100.00;101591.53;5054231;28;20480;-68
2023/09/03 06:06:08;;;;;;;16.03;6.83;;;;;;;16.08;100.00;101600.47;5036299;28;20024;-68
2023/09/03 06:08:35;;;;;;;14.70;8.83;;;;;;;16.34;100.00;101603.66;5052976;28;20037;-70
2023/09/03 06:11:01;;;;;;;19.57;7.97;;;;;;;16.28;100.00;101588.25;5054615;28;20025;-68
2023/09/03 06:13:28;;;;;;;17.63;7.67;;;;;;;16.25;100.00;101596.66;5054436;28;20115;-67
2023/09/03 06:15:55;;;;;;;12.87;7.10;;;;;;;16.30;100.00;101605.03;5054409;28;20033;-66
2023/09/03 06:18:21;;;;;;;12.73;6.03;;;;;;;16.10;100.00;101571.56;5053963;28;20029;-68
2023/09/03 06:20:46;;;;;;;11.47;7.00;;;;;;;16.27;100.00;101605.38;5053956;28;20037;-70
2023/09/03 06:23:19;;;;;;;10.47;6.10;;;;;;;16.12;100.00;101585.66;5052881;28;20075;-69
2023/09/03 06:25:46;;;;;;;12.27;5.63;;;;;;;15.89;100.00;101569.53;5054117;28;20036;-67
2023/09/03 06:28:12;;;;;;;13.10;6.23;;;;;;;16.09;100.00;101607.53;5054292;28;20043;-67
2023/09/03 06:30:38;;;;;;;15.83;5.80;;;;;;;16.01;100.00;101594.16;5054253;28;20496;-68
2023/09/03 06:33:04;;;;;;;18.87;8.73;;;;;;;16.06;100.00;101597.97;5058424;28;20033;-68
2023/09/03 06:35:30;;;;;;;14.00;6.70;;;;;;;16.23;100.00;101617.53;5056052;28;20123;-66
2023/09/03 06:37:58;;;;;;;13.83;6.93;;;;;;;16.19;100.00;101597.41;5055476;28;20491;-67
2023/09/03 06:40:24;;;;;;;17.73;6.68;;;;;;;15.94;100.00;101543.00;5054865;28;20144;-68
2023/09/03 06:42:53;;;;;;;12.13;6.57;;;;;;;16.40;100.00;101610.16;5057994;28;20037;-68
2023/09/03 06:45:19;;;;;;;9.87;5.63;;;;;;;16.52;100.00;101605.19;5059344;28;20063;-67
2023/09/03 06:47:45;;;;;;;7.93;5.73;;;;;;;16.56;100.00;101577.75;5053835;28;20037;-68
2023/09/03 06:50:11;;;;;;;9.07;5.47;;;;;;;16.80;100.00;101595.56;5055877;28;20056;-68
2023/09/03 06:52:37;;;;;;;12.27;5.90;;;;;;;16.93;100.00;101594.91;5054107;28;20421;-67
2023/09/03 06:55:03;;;;;;;6.80;5.77;;;;;;;16.92;100.00;101582.50;5055031;28;20028;-70
2023/09/03 06:57:28;;;;;;;9.15;5.47;;;;;;;17.02;100.00;101609.94;5053349;28;20053;-67
2023/09/03 06:59:55;;;;;;;8.13;5.10;;;;;;;16.84;100.00;101596.03;5053404;28;20468;-67
2023/09/03 07:02:20;;;;;;;15.23;6.47;;;;;;;16.87;100.00;101596.50;5053320;28;20021;-69
2023/09/03 07:04:46;;;;;;;9.55;5.10;;;;;;;16.60;100.00;101552.19;5052417;28;20036;-69
2023/09/03 07:07:12;;;;;;;6.65;4.35;;;;;;;16.99;100.00;101605.78;5053241;28;20029;-69
2023/09/03 07:09:37;;;;;;;9.30;5.30;;;;;;;17.01;100.00;101609.13;5052977;28;20160;-70
2023/09/03 07:12:03;;;;;;;8.90;5.03;;;;;;;16.90;100.00;101601.50;5054018;28;20473;-70
2023/09/03 07:14:33;;;;;;;11.45;5.20;;;;;;;16.90;100.00;101601.50;5055093;28;20029;-68
2023/09/03 07:17:02;;;;;;;5.75;4.15;;;;;;;16.97;100.00;101604.28;5052377;28;20029;-69
2023/09/03 07:19:29;;;;;;;8.77;4.05;;;;;;;17.01;100.00;101606.41;5053025;28;20124;-68
2023/09/03 07:21:54;;;;;;;7.75;4.03;;;;;;;16.98;100.00;101601.41;5053130;28;20020;-71
2023/09/03 07:24:20;;;;;;;12.55;5.22;;;;;;;16.96;100.00;101608.84;5052973;28;20108;-70
2023/09/03 07:26:45;;;;;;;12.82;4.93;;;;;;;16.94;100.00;101597.41;5052692;28;20159;-70
2023/09/03 07:29:13;;;;;;;10.05;5.10;;;;;;;17.09;100.00;101610.91;5052711;28;20380;-71
2023/09/03 07:31:41;;;;;;;6.20;3.90;;;;;;;17.26;100.00;101633.09;5051244;28;20476;-69
2023/09/03 07:34:12;;;;;;;7.85;4.35;;;;;;;17.36;100.00;101616.66;5052310;28;20464;-68
2023/09/03 07:36:40;;;;;;;11.05;3.70;;;;;;;17.44;100.00;101625.47;5052717;28;20029;-68
2023/09/03 07:39:07;;;;;;;9.88;4.05;;;;;;;17.43;100.00;101615.72;5052352;28;20057;-68
2023/09/03 07:41:33;;;;;;;5.68;4.25;;;;;;;17.53;99.55;101615.44;5054104;28;20045;-67
2023/09/03 07:44:02;;;;;;;7.18;4.40;;;;;;;17.56;99.05;101623.97;5055659;28;20100;-67
2023/09/03 07:46:28;;;;;;;10.05;4.10;;;;;;;17.65;99.55;101627.41;5053788;28;20128;-67
2023/09/03 07:48:53;;;;;;;9.27;4.05;;;;;;;17.78;98.46;101616.00;5052869;28;20449;-64
2023/09/03 07:51:20;;;;;;;11.80;4.30;;;;;;;18.06;97.11;101608.84;5051974;28;20020;-68
2023/09/03 07:53:52;;;;;;;7.55;4.40;;;;;;;18.30;95.29;101623.00;5052901;28;20028;-65
2023/09/03 07:56:18;;;;;;;8.90;5.00;;;;;;;18.30;94.55;101598.72;5052655;28;20033;-66
2023/09/03 07:58:46;;;;;;;5.78;4.35;;;;;;;18.57;94.08;101622.22;5052534;28;20028;-66
2023/09/03 08:01:14;;;;;;;6.10;4.50;;;;;;;18.64;91.93;101633.91;5052250;28;20035;-67
2023/09/03 08:03:43;;;;;;;6.80;4.43;;;;;;;18.71;91.76;101634.81;5052228;28;20082;-65
2023/09/03 08:06:09;;;;;;;5.35;4.38;;;;;;;18.76;90.88;101632.34;5052133;28;20059;-67
2023/09/03 08:08:35;;;;;;;6.38;4.45;;;;;;;18.69;91.72;101620.66;5051779;28;20028;-68
2023/09/03 08:11:01;;;;;;;6.53;4.45;;;;;;;18.73;91.91;101626.50;5051655;28;20044;-67
2023/09/03 08:13:27;;;;;;;6.43;4.28;;;;;;;18.86;91.55;101638.25;5051867;28;20409;-69
2023/09/03 08:15:53;;;;;;;5.72;3.67;;;;;;;18.81;90.91;101597.53;5049601;28;20037;-68
2023/09/03 08:18:18;;;;;;;4.22;3.40;;;;;;;19.10;89.53;101612.69;5051525;28;20033;-67
2023/09/03 08:20:44;;;;;;;6.88;3.40;;;;;;;19.28;89.50;101622.97;5051780;28;20029;-65
2023/09/03 08:23:13;;;;;;;6.70;3.55;;;;;;;19.31;89.44;101624.44;5051792;28;20021;-67
2023/09/03 08:25:40;;;;;;;5.28;3.47;;;;;;;18.91;90.38;101574.75;5050481;28;20033;-68
2023/09/03 08:28:10;;;;;;;7.28;2.75;;;;;;;19.03;89.13;101614.50;5051433;28;20029;-66
2023/09/03 08:30:37;;;;;;;5.03;3.53;;;;;;;19.00;90.17;101635.66;5051817;28;20053;-71
2023/09/03 08:33:06;;;;;;;6.20;4.63;;;;;;;18.98;91.03;101640.41;5050647;28;20516;-67
2023/09/03 08:35:32;;;;;;;6.03;3.47;;;;;;;19.14;91.50;101635.56;5051586;28;20475;-65
2023/09/03 08:37:57;;;;;;;7.75;3.38;;;;;;;19.47;89.84;101660.06;5050498;28;20055;-68
2023/09/03 08:40:24;;;;;;;7.25;3.20;;;;;;;19.58;88.36;101634.38;5050292;28;20475;-66
2023/09/03 08:42:52;;;;;;;8.00;3.67;;;;;;;19.54;87.63;101607.97;5049092;28;20348;-68
2023/09/03 08:45:18;;;;;;;7.70;3.50;;;;;;;19.83;86.77;101650.91;5051303;28;20453;-67
2023/09/03 08:47:51;;;;;;;9.63;3.50;;;;;;;19.89;86.74;101655.50;5050038;28;20037;-70
2023/09/03 08:50:16;;;;;;;5.82;3.30;;;;;;;19.87;86.83;101651.34;5050074;28;20036;-68
2023/09/03 08:52:43;;;;;;;4.88;2.92;;;;;;;19.83;87.19;101667.13;5051236;28;20368;-66
2023/09/03 08:55:11;;;;;;;4.15;2.58;;;;;;;19.92;87.80;101671.31;5049339;28;20476;-69
2023/09/03 08:57:37;;;;;;;13.55;3.70;;;;;;;19.98;88.15;101667.81;5048514;28;20376;-68
2023/09/03 09:00:08;;;;;;;4.38;3.47;;;;;;;19.78;87.69;101637.16;5050600;28;20093;-68
2023/09/03 09:02:36;;;;;;;6.47;3.30;;;;;;;19.40;87.23;101586.28;5051415;28;20368;-70
2023/09/03 09:05:03;;;;;;;7.45;3.08;;;;;;;19.76;87.94;101661.69;5048319;28;20033;-65
2023/09/03 09:07:29;;;;;;;4.97;3.15;;;;;;;19.66;89.10;101653.13;5049925;28;20031;-67
2023/09/03 09:09:59;;;;;;;7.47;3.65;;;;;;;19.68;88.70;101652.94;5051858;28;20379;-69
2023/09/03 09:12:31;;;;;;;5.60;3.08;;;;;;;19.81;89.62;101666.50;5053263;28;20033;-70
2023/09/03 09:15:03;;;;;;;3.20;2.75;;;;;;;19.42;88.70;101605.81;5051849;28;20052;-70
2023/09/03 09:17:42;;;;;;;4.70;3.17;;;;;;;19.71;88.19;101663.34;5051301;28;20021;-70
2023/09/03 09:20:09;;;;;;;;;;;;;;;19.88;88.38;101672.75;5051877;28;20056;-69
2023/09/03 09:22:42;;;;;;;6.60;3.42;;;;;;;19.79;88.25;101672.09;5051583;28;19912;-67
2023/09/03 09:25:08;;;;;;;4.68;3.85;;;;;;;19.62;88.71;101661.81;5051181;28;20329;-67
2023/09/03 09:27:38;;;;;;;4.55;3.10;;;;;;;19.57;89.73;101672.41;5051020;28;20119;-69
2023/09/03 09:30:11;;;;;;;5.50;2.85;;;;;;;19.57;90.21;101683.22;5054892;28;20144;-69
2023/09/03 09:32:37;;;;;;;5.00;2.78;;;;;;;19.59;90.14;101667.63;5054809;28;20029;-68
2023/09/03 09:35:03;;;;;;;5.82;3.40;;;;;;;19.54;90.04;101670.94;5054835;28;20558;-69
2023/09/03 09:37:41;;;;;;;3.35;2.90;;;;;;;19.52;91.39;101658.63;5055162;28;20059;-65
2023/09/03 09:40:08;;;;;;;3.88;3.08;;;;;;;19.62;90.65;101669.94;5055268;28;20025;-68
2023/09/03 09:42:53;;;;;;;3.95;2.70;;;;;;;19.65;89.23;101670.34;5054608;28;20039;-71
2023/09/03 09:45:18;;;;;;;3.92;2.78;;;;;;;19.73;89.80;101682.88;5054746;28;20020;-71
2023/09/03 09:47:46;;;;;;;3.85;2.03;;;;;;;19.75;87.69;101676.25;5054738;28;20063;-70
2023/09/03 09:50:11;;;;;;;4.70;2.00;;;;;;;19.57;87.97;101675.09;5054563;28;20107;-69
2023/09/03 09:52:40;;;;;;;4.75;2.28;;;;;;;19.45;88.23;101694.56;5053995;28;20125;-68
2023/09/03 09:55:06;;;;;;;3.75;2.20;;;;;;;19.31;89.56;101684.69;5054399;28;20029;-68
2023/09/03 09:57:32;;;;;;;3.90;1.73;;;;;;;18.87;90.04;101639.09;5054200;28;20040;-68
2023/09/03 10:00:04;;;;;;;4.60;2.03;;;;;;;19.18;90.55;101685.44;5054457;28;20056;-66
2023/09/03 10:02:32;;;;;;;4.90;2.00;;;;;;;19.20;90.66;101682.53;5054621;28;20025;-67
2023/09/03 10:04:58;;;;;;;2.75;1.98;;;;;;;19.30;91.12;101688.41;5053219;28;20333;-70
2023/09/03 10:07:24;;;;;;;4.43;1.70;;;;;;;19.22;91.63;101685.88;5053675;28;20116;-70
2023/09/03 10:09:49;;;;;;;3.05;1.90;;;;;;;19.14;90.94;101681.47;5053636;28;20064;-67
2023/09/03 10:12:15;;;;;;;3.40;2.20;;;;;;;19.11;91.01;101664.81;5053679;28;20048;-70
2023/09/03 10:14:41;;;;;;;2.85;2.28;;;;;;;19.33;90.41;101693.41;5053747;28;20463;-69
2023/09/03 10:17:08;;;;;;;6.20;2.00;;;;;;;19.27;91.42;101696.06;5053921;28;20063;-72
2023/09/03 10:19:42;;;;;;;3.88;2.33;;;;;;;19.09;93.40;101680.38;5054106;28;20388;-71
2023/09/03 10:22:12;;;;;;;4.20;2.88;;;;;;;19.03;94.91;101686.53;5054160;28;20024;-68
2023/09/03 10:24:39;;;;;;;3.60;2.78;;;;;;;18.89;95.87;101688.31;5053854;28;20482;-65
2023/09/03 10:27:12;;;;;;;4.65;2.55;;;;;;;18.66;97.01;101660.72;5054205;28;20439;-68
2023/09/03 10:29:41;;;;;;;4.30;2.92;;;;;;;18.89;97.54;101707.22;5053898;28;20102;-73
2023/09/03 10:32:10;;;;;;;3.15;2.00;;;;;;;18.90;96.48;101714.28;5054025;28;20529;-68
2023/09/03 10:34:37;;;;;;;4.00;2.55;;;;;;;19.02;96.01;101711.88;5053916;28;20029;-69
2023/09/03 10:37:07;;;;;;;3.85;1.95;;;;;;;19.18;95.48;101711.59;5051940;28;20447;-65
2023/09/03 10:39:34;;;;;;;3.75;2.45;;;;;;;19.19;94.93;101705.16;5052764;28;20083;-67
2023/09/03 10:42:15;;;;;;;7.28;4.82;;;;;;;19.21;93.14;101672.56;5054075;28;20033;-69
2023/09/03 10:44:44;;;;;;;2.50;2.10;;;;;;;18.83;92.26;101606.28;5053933;28;20029;-68
2023/09/03 10:47:17;;;;;;;3.85;2.33;;;;;;;19.51;91.67;101714.53;5054462;28;20021;-65
2023/09/03 10:49:44;;;;;;;3.53;2.90;;;;;;;19.46;91.08;101720.53;5053697;28;20364;-72
2023/09/03 10:52:31;;;;;;;2.33;1.70;;;;;;;19.58;90.95;101712.72;5053676;28;20464;-68
2023/09/03 10:55:20;;;;;;;3.67;1.60;;;;;;;19.54;90.43;101719.56;5052293;28;20464;-68
2023/09/03 10:58:08;;;;;;;2.30;2.10;;;;;;;19.62;91.19;101707.75;5053203;28;20259;-66
2023/09/03 11:00:33;;;;;;;3.75;1.73;;;;;;;19.78;89.99;101712.84;5053573;28;20052;-67
2023/09/03 11:03:16;;;;;;;5.40;2.63;;;;;;;19.99;89.67;101726.28;5054363;28;20059;-67
2023/09/03 11:06:01;;;;;;;3.60;1.80;;;;;;;20.08;89.29;101702.59;5052091;28;20021;-70
2023/09/03 11:08:31;;;;;;;4.07;1.70;;;;;;;20.34;88.21;101712.66;5052924;28;20025;-69
2023/09/03 11:10:58;;;;;;;5.75;2.72;;;;;;;20.49;87.25;101718.75;5053366;28;20098;-71
2023/09/03 11:13:27;;;;;;;3.47;1.95;;;;;;;20.55;87.41;101723.38;5053337;28;20481;-70
2023/09/03 11:15:57;;;;;;;3.53;1.70;;;;;;;20.14;86.24;101687.41;5053519;28;20099;-69
2023/09/03 11:18:26;;;;;;;2.95;1.45;;;;;;;20.37;87.17;101739.31;5053349;28;20037;-73